sensor_id;sensor_type;location;lat;lon;timestamp;temperature;humidity
7606;DHT22;3844;53.360;9.738;2023-06-22T00:00:11;16.00;94.70
7606;DHT22;3844;53.360;9.738;2023-06-22T00:02:12;16.00;94.60
7606;DHT22;3844;53.360;9.738;2023-06-22T00:04:13;16.00;94.60
7606;DHT22;3844;53.360;9.738;2023-06-22T00:06:14;15.90;94.60
7606;DHT22;3844;53.360;9.738;2023-06-22T00:08:15;15.90;94.70
7606;DHT22;3844;53.360;9.738;2023-06-22T00:10:16;15.90;94.80
7606;DHT22;3844;53.360;9.738;2023-06-22T00:12:16;15.80;94.90
7606;DHT22;3844;53.360;9.738;2023-06-22T00:14:17;15.80;95.00
7606;DHT22;3844;53.360;9.738;2023-06-22T00:16:18;15.80;95.00
7606;DHT22;3844;53.360;9.738;2023-06-22T00:18:18;15.80;95.00
7606;DHT22;3844;53.360;9.738;2023-06-22T00:20:20;15.80;94.90
7606;DHT22;3844;53.360;9.738;2023-06-22T00:22:22;15.80;94.90
7606;DHT22;3844;53.360;9.738;2023-06-22T00:24:28;15.80;94.90
7606;DHT22;3844;53.360;9.738;2023-06-22T00:26:29;15.80;95.00
7606;DHT22;3844;53.360;9.738;2023-06-22T00:28:30;15.80;95.10
7606;DHT22;3844;53.360;9.738;2023-06-22T00:30:31;15.70;95.30
7606;DHT22;3844;53.360;9.738;2023-06-22T00:32:32;15.70;95.40
7606;DHT22;3844;53.360;9.738;2023-06-22T00:34:33;15.80;95.30
7606;DHT22;3844;53.360;9.738;2023-06-22T00:36:34;15.80;95.20
7606;DHT22;3844;53.360;9.738;2023-06-22T00:38:35;15.80;95.20
7606;DHT22;3844;53.360;9.738;2023-06-22T00:40:40;15.70;95.30
7606;DHT22;3844;53.360;9.738;2023-06-22T00:42:41;15.70;95.40
7606;DHT22;3844;53.360;9.738;2023-06-22T00:44:42;15.70;95.40
7606;DHT22;3844;53.360;9.738;2023-06-22T00:46:43;15.70;95.40
7606;DHT22;3844;53.360;9.738;2023-06-22T00:48:44;15.70;95.40
7606;DHT22;3844;53.360;9.738;2023-06-22T00:50:45;15.70;95.50
7606;DHT22;3844;53.360;9.738;2023-06-22T00:52:48;15.60;95.50
7606;DHT22;3844;53.360;9.738;2023-06-22T00:54:48;15.60;95.60
7606;DHT22;3844;53.360;9.738;2023-06-22T00:56:53;15.70;95.50
7606;DHT22;3844;53.360;9.738;2023-06-22T00:58:58;15.60;95.40
7606;DHT22;3844;53.360;9.738;2023-06-22T01:00:59;15.60;95.40
7606;DHT22;3844;53.360;9.738;2023-06-22T01:03:02;15.60;95.50
7606;DHT22;3844;53.360;9.738;2023-06-22T01:05:02;15.50;95.60
7606;DHT22;3844;53.360;9.738;2023-06-22T01:07:30;15.50;95.70
7606;DHT22;3844;53.360;9.738;2023-06-22T01:09:35;15.50;95.70
7606;DHT22;3844;53.360;9.738;2023-06-22T01:11:43;15.50;95.70
7606;DHT22;3844;53.360;9.738;2023-06-22T01:14:06;15.60;95.70
7606;DHT22;3844;53.360;9.738;2023-06-22T01:16:17;15.60;95.70
7606;DHT22;3844;53.360;9.738;2023-06-22T01:18:22;15.50;95.70
7606;DHT22;3844;53.360;9.738;2023-06-22T01:20:27;15.50;95.70
7606;DHT22;3844;53.360;9.738;2023-06-22T01:22:31;15.40;95.70
7606;DHT22;3844;53.360;9.738;2023-06-22T01:29:05;15.40;95.70
7606;DHT22;3844;53.360;9.738;2023-06-22T01:31:10;15.40;95.70
7606;DHT22;3844;53.360;9.738;2023-06-22T01:33:13;15.40;95.70
7606;DHT22;3844;53.360;9.738;2023-06-22T01:35:15;15.30;95.70
7606;DHT22;3844;53.360;9.738;2023-06-22T01:37:16;15.30;95.70
7606;DHT22;3844;53.360;9.738;2023-06-22T01:39:17;15.30;95.70
7606;DHT22;3844;53.360;9.738;2023-06-22T01:41:20;15.30;95.70
7606;DHT22;3844;53.360;9.738;2023-06-22T01:43:22;15.30;95.70
7606;DHT22;3844;53.360;9.738;2023-06-22T01:45:24;15.30;95.70
7606;DHT22;3844;53.360;9.738;2023-06-22T01:47:26;15.30;95.70
7606;DHT22;3844;53.360;9.738;2023-06-22T01:49:28;15.30;95.70
7606;DHT22;3844;53.360;9.738;2023-06-22T01:51:29;15.30;95.70
7606;DHT22;3844;53.360;9.738;2023-06-22T01:53:30;15.20;95.70
7606;DHT22;3844;53.360;9.738;2023-06-22T01:55:31;15.20;95.70
7606;DHT22;3844;53.360;9.738;2023-06-22T01:57:32;15.20;95.70
7606;DHT22;3844;53.360;9.738;2023-06-22T01:59:37;15.20;95.70
7606;DHT22;3844;53.360;9.738;2023-06-22T02:02:04;15.20;95.70
7606;DHT22;3844;53.360;9.738;2023-06-22T02:04:11;15.20;95.70
7606;DHT22;3844;53.360;9.738;2023-06-22T02:06:27;15.20;95.70
7606;DHT22;3844;53.360;9.738;2023-06-22T02:08:48;15.10;95.70
7606;DHT22;3844;53.360;9.738;2023-06-22T02:10:52;15.10;95.70
7606;DHT22;3844;53.360;9.738;2023-06-22T02:12:54;15.00;95.70
7606;DHT22;3844;53.360;9.738;2023-06-22T02:14:56;15.00;95.70
7606;DHT22;3844;53.360;9.738;2023-06-22T02:16:57;15.00;95.70
7606;DHT22;3844;53.360;9.738;2023-06-22T02:19:01;14.90;95.70
7606;DHT22;3844;53.360;9.738;2023-06-22T02:21:06;14.90;95.70
7606;DHT22;3844;53.360;9.738;2023-06-22T02:23:08;14.90;95.70
7606;DHT22;3844;53.360;9.738;2023-06-22T02:25:09;14.90;95.70
7606;DHT22;3844;53.360;9.738;2023-06-22T02:27:09;14.80;95.70
7606;DHT22;3844;53.360;9.738;2023-06-22T02:29:11;14.80;95.70
7606;DHT22;3844;53.360;9.738;2023-06-22T02:31:11;14.80;95.70
7606;DHT22;3844;53.360;9.738;2023-06-22T02:33:12;14.80;95.70
7606;DHT22;3844;53.360;9.738;2023-06-22T02:35:13;14.80;95.70
7606;DHT22;3844;53.360;9.738;2023-06-22T02:37:14;14.80;95.70
7606;DHT22;3844;53.360;9.738;2023-06-22T02:39:15;14.70;95.70
7606;DHT22;3844;53.360;9.738;2023-06-22T02:41:16;14.70;95.70
7606;DHT22;3844;53.360;9.738;2023-06-22T02:43:19;14.70;95.70
7606;DHT22;3844;53.360;9.738;2023-06-22T02:45:20;14.70;95.70
7606;DHT22;3844;53.360;9.738;2023-06-22T02:49:22;14.70;95.70
7606;DHT22;3844;53.360;9.738;2023-06-22T02:51:23;14.60;95.70
7606;DHT22;3844;53.360;9.738;2023-06-22T02:53:24;14.60;95.70
7606;DHT22;3844;53.360;9.738;2023-06-22T02:55:24;14.60;95.70
7606;DHT22;3844;53.360;9.738;2023-06-22T02:57:25;14.60;95.70
7606;DHT22;3844;53.360;9.738;2023-06-22T02:59:26;14.60;95.70
7606;DHT22;3844;53.360;9.738;2023-06-22T03:01:30;14.60;95.70
7606;DHT22;3844;53.360;9.738;2023-06-22T03:03:40;14.60;95.70
7606;DHT22;3844;53.360;9.738;2023-06-22T03:05:41;14.60;95.70
7606;DHT22;3844;53.360;9.738;2023-06-22T03:07:42;14.60;95.70
7606;DHT22;3844;53.360;9.738;2023-06-22T03:09:43;14.60;95.70
7606;DHT22;3844;53.360;9.738;2023-06-22T03:11:44;14.60;95.70
7606;DHT22;3844;53.360;9.738;2023-06-22T03:13:45;14.60;95.70
7606;DHT22;3844;53.360;9.738;2023-06-22T03:15:46;14.60;95.70
7606;DHT22;3844;53.360;9.738;2023-06-22T03:17:48;14.60;95.70
7606;DHT22;3844;53.360;9.738;2023-06-22T03:19:49;14.60;95.70
7606;DHT22;3844;53.360;9.738;2023-06-22T03:21:50;14.60;95.70
7606;DHT22;3844;53.360;9.738;2023-06-22T03:23:50;14.60;95.70
7606;DHT22;3844;53.360;9.738;2023-06-22T03:25:51;14.60;95.70
7606;DHT22;3844;53.360;9.738;2023-06-22T03:27:52;14.60;95.70
7606;DHT22;3844;53.360;9.738;2023-06-22T03:29:52;14.60;95.70
7606;DHT22;3844;53.360;9.738;2023-06-22T03:33:54;14.70;95.70
7606;DHT22;3844;53.360;9.738;2023-06-22T03:35:55;14.70;95.70
7606;DHT22;3844;53.360;9.738;2023-06-22T03:37:56;14.70;95.70
7606;DHT22;3844;53.360;9.738;2023-06-22T03:39:56;14.80;95.70
7606;DHT22;3844;53.360;9.738;2023-06-22T03:41:57;14.80;95.70
7606;DHT22;3844;53.360;9.738;2023-06-22T03:43:58;14.90;95.70
7606;DHT22;3844;53.360;9.738;2023-06-22T03:45:59;15.00;95.70
7606;DHT22;3844;53.360;9.738;2023-06-22T03:48:00;15.10;95.70
7606;DHT22;3844;53.360;9.738;2023-06-22T03:50:01;15.20;95.70
7606;DHT22;3844;53.360;9.738;2023-06-22T03:52:04;15.20;95.70
7606;DHT22;3844;53.360;9.738;2023-06-22T03:54:05;15.30;95.70
7606;DHT22;3844;53.360;9.738;2023-06-22T03:56:05;15.30;95.70
7606;DHT22;3844;53.360;9.738;2023-06-22T03:58:06;15.30;95.70
7606;DHT22;3844;53.360;9.738;2023-06-22T04:00:07;15.40;95.70
7606;DHT22;3844;53.360;9.738;2023-06-22T04:02:08;15.40;95.70
7606;DHT22;3844;53.360;9.738;2023-06-22T04:04:10;15.40;95.70
7606;DHT22;3844;53.360;9.738;2023-06-22T04:06:10;15.50;95.70
7606;DHT22;3844;53.360;9.738;2023-06-22T04:08:13;15.50;95.70
7606;DHT22;3844;53.360;9.738;2023-06-22T04:10:14;15.70;95.70
7606;DHT22;3844;53.360;9.738;2023-06-22T04:12:14;15.70;95.70
7606;DHT22;3844;53.360;9.738;2023-06-22T04:14:15;15.70;95.60
7606;DHT22;3844;53.360;9.738;2023-06-22T04:16:16;15.70;95.60
7606;DHT22;3844;53.360;9.738;2023-06-22T04:18:17;15.80;95.40
7606;DHT22;3844;53.360;9.738;2023-06-22T04:20:17;15.80;95.40
7606;DHT22;3844;53.360;9.738;2023-06-22T04:22:18;15.80;95.40
7606;DHT22;3844;53.360;9.738;2023-06-22T04:24:19;15.80;95.30
7606;DHT22;3844;53.360;9.738;2023-06-22T04:26:20;15.90;95.50
7606;DHT22;3844;53.360;9.738;2023-06-22T04:28:21;15.90;95.50
7606;DHT22;3844;53.360;9.738;2023-06-22T04:30:22;16.00;95.50
7606;DHT22;3844;53.360;9.738;2023-06-22T04:32:22;16.10;95.30
7606;DHT22;3844;53.360;9.738;2023-06-22T04:34:24;16.20;95.10
7606;DHT22;3844;53.360;9.738;2023-06-22T04:36:26;16.20;95.00
7606;DHT22;3844;53.360;9.738;2023-06-22T04:38:31;16.20;94.90
7606;DHT22;3844;53.360;9.738;2023-06-22T04:40:34;16.30;94.90
7606;DHT22;3844;53.360;9.738;2023-06-22T04:42:37;16.40;94.90
7606;DHT22;3844;53.360;9.738;2023-06-22T04:44:38;16.50;94.80
7606;DHT22;3844;53.360;9.738;2023-06-22T04:46:40;16.50;94.70
7606;DHT22;3844;53.360;9.738;2023-06-22T04:48:41;16.60;94.70
7606;DHT22;3844;53.360;9.738;2023-06-22T04:50:42;16.70;94.50
7606;DHT22;3844;53.360;9.738;2023-06-22T04:52:42;16.80;94.50
7606;DHT22;3844;53.360;9.738;2023-06-22T04:54:43;16.80;94.30
7606;DHT22;3844;53.360;9.738;2023-06-22T04:56:48;16.90;94.20
7606;DHT22;3844;53.360;9.738;2023-06-22T04:58:53;17.00;94.20
7606;DHT22;3844;53.360;9.738;2023-06-22T05:00:57;17.00;94.20
7606;DHT22;3844;53.360;9.738;2023-06-22T05:02:58;17.10;94.10
7606;DHT22;3844;53.360;9.738;2023-06-22T05:04:59;17.20;94.10
7606;DHT22;3844;53.360;9.738;2023-06-22T05:07:00;17.30;94.10
7606;DHT22;3844;53.360;9.738;2023-06-22T05:09:01;17.50;93.90
7606;DHT22;3844;53.360;9.738;2023-06-22T05:11:03;17.60;93.50
7606;DHT22;3844;53.360;9.738;2023-06-22T05:13:03;17.80;93.10
7606;DHT22;3844;53.360;9.738;2023-06-22T05:15:08;17.90;92.90
7606;DHT22;3844;53.360;9.738;2023-06-22T05:17:09;18.20;92.30
7606;DHT22;3844;53.360;9.738;2023-06-22T05:19:14;18.30;92.10
7606;DHT22;3844;53.360;9.738;2023-06-22T05:21:14;18.60;91.90
7606;DHT22;3844;53.360;9.738;2023-06-22T05:23:15;18.80;91.50
7606;DHT22;3844;53.360;9.738;2023-06-22T05:25:16;19.10;91.10
7606;DHT22;3844;53.360;9.738;2023-06-22T05:29:18;19.80;89.50
7606;DHT22;3844;53.360;9.738;2023-06-22T05:31:19;20.20;88.50
7606;DHT22;3844;53.360;9.738;2023-06-22T05:33:22;20.50;87.20
7606;DHT22;3844;53.360;9.738;2023-06-22T05:35:24;20.80;87.00
7606;DHT22;3844;53.360;9.738;2023-06-22T05:37:24;21.10;86.10
7606;DHT22;3844;53.360;9.738;2023-06-22T05:39:25;21.20;85.30
7606;DHT22;3844;53.360;9.738;2023-06-22T05:41:26;21.40;84.90
7606;DHT22;3844;53.360;9.738;2023-06-22T05:43:27;21.80;84.70
7606;DHT22;3844;53.360;9.738;2023-06-22T05:45:28;22.20;83.30
7606;DHT22;3844;53.360;9.738;2023-06-22T05:47:29;22.40;82.00
7606;DHT22;3844;53.360;9.738;2023-06-22T05:49:30;22.40;80.60
7606;DHT22;3844;53.360;9.738;2023-06-22T05:51:33;22.60;81.30
7606;DHT22;3844;53.360;9.738;2023-06-22T05:53:33;22.90;80.80
7606;DHT22;3844;53.360;9.738;2023-06-22T05:55:34;23.30;79.50
7606;DHT22;3844;53.360;9.738;2023-06-22T05:57:35;23.80;78.40
7606;DHT22;3844;53.360;9.738;2023-06-22T05:59:35;24.30;76.90
7606;DHT22;3844;53.360;9.738;2023-06-22T06:01:36;24.70;76.10
7606;DHT22;3844;53.360;9.738;2023-06-22T06:03:37;25.20;74.40
7606;DHT22;3844;53.360;9.738;2023-06-22T06:05:41;25.50;72.90
7606;DHT22;3844;53.360;9.738;2023-06-22T06:07:42;25.70;72.50
7606;DHT22;3844;53.360;9.738;2023-06-22T06:09:43;25.80;71.10
7606;DHT22;3844;53.360;9.738;2023-06-22T06:13:45;25.70;72.10
7606;DHT22;3844;53.360;9.738;2023-06-22T06:17:49;26.30;70.90
7606;DHT22;3844;53.360;9.738;2023-06-22T06:19:50;26.70;70.40
7606;DHT22;3844;53.360;9.738;2023-06-22T06:21:51;27.10;69.30
7606;DHT22;3844;53.360;9.738;2023-06-22T06:23:51;27.40;68.10
7606;DHT22;3844;53.360;9.738;2023-06-22T06:25:53;27.60;68.20
7606;DHT22;3844;53.360;9.738;2023-06-22T06:27:54;28.10;67.10
7606;DHT22;3844;53.360;9.738;2023-06-22T06:29:55;28.50;65.80
7606;DHT22;3844;53.360;9.738;2023-06-22T06:31:56;29.00;64.90
7606;DHT22;3844;53.360;9.738;2023-06-22T06:33:57;29.40;62.70
7606;DHT22;3844;53.360;9.738;2023-06-22T06:35:58;29.70;61.20
7606;DHT22;3844;53.360;9.738;2023-06-22T06:39:59;30.10;56.90
7606;DHT22;3844;53.360;9.738;2023-06-22T06:42:00;30.20;58.50
7606;DHT22;3844;53.360;9.738;2023-06-22T06:46:02;30.70;57.00
7606;DHT22;3844;53.360;9.738;2023-06-22T06:48:03;30.90;56.20
7606;DHT22;3844;53.360;9.738;2023-06-22T06:50:05;30.90;55.30
7606;DHT22;3844;53.360;9.738;2023-06-22T06:52:06;30.90;53.60
7606;DHT22;3844;53.360;9.738;2023-06-22T06:54:07;30.50;56.20
7606;DHT22;3844;53.360;9.738;2023-06-22T06:56:08;30.00;56.70
7606;DHT22;3844;53.360;9.738;2023-06-22T06:58:10;30.00;56.70
7606;DHT22;3844;53.360;9.738;2023-06-22T07:00:13;28.70;59.10
7606;DHT22;3844;53.360;9.738;2023-06-22T07:02:15;28.50;59.60
7606;DHT22;3844;53.360;9.738;2023-06-22T07:04:16;28.20;60.00
7606;DHT22;3844;53.360;9.738;2023-06-22T07:06:17;28.10;61.30
7606;DHT22;3844;53.360;9.738;2023-06-22T07:10:19;28.50;60.70
7606;DHT22;3844;53.360;9.738;2023-06-22T07:14:21;28.60;58.00
7606;DHT22;3844;53.360;9.738;2023-06-22T07:16:22;28.30;59.50
7606;DHT22;3844;53.360;9.738;2023-06-22T07:18:24;28.40;59.90
7606;DHT22;3844;53.360;9.738;2023-06-22T07:20:25;28.70;60.40
7606;DHT22;3844;53.360;9.738;2023-06-22T07:22:25;29.00;59.90
7606;DHT22;3844;53.360;9.738;2023-06-22T07:24:26;29.20;59.10
7606;DHT22;3844;53.360;9.738;2023-06-22T07:26:27;29.50;58.80
7606;DHT22;3844;53.360;9.738;2023-06-22T07:28:28;30.00;58.40
7606;DHT22;3844;53.360;9.738;2023-06-22T07:30:32;30.40;56.60
7606;DHT22;3844;53.360;9.738;2023-06-22T07:32:33;30.80;56.40
7606;DHT22;3844;53.360;9.738;2023-06-22T07:34:34;31.10;54.30
7606;DHT22;3844;53.360;9.738;2023-06-22T07:36:34;31.20;54.00
7606;DHT22;3844;53.360;9.738;2023-06-22T07:38:36;31.10;53.60
7606;DHT22;3844;53.360;9.738;2023-06-22T07:40:36;31.10;53.80
7606;DHT22;3844;53.360;9.738;2023-06-22T07:42:37;31.30;52.00
7606;DHT22;3844;53.360;9.738;2023-06-22T07:44:38;31.30;53.40
7606;DHT22;3844;53.360;9.738;2023-06-22T07:48:40;31.30;52.80
7606;DHT22;3844;53.360;9.738;2023-06-22T07:50:42;31.60;53.20
7606;DHT22;3844;53.360;9.738;2023-06-22T07:52:43;32.00;52.90
7606;DHT22;3844;53.360;9.738;2023-06-22T07:54:43;32.10;53.30
7606;DHT22;3844;53.360;9.738;2023-06-22T07:56:46;31.80;53.30
7606;DHT22;3844;53.360;9.738;2023-06-22T07:58:47;31.10;53.60
7606;DHT22;3844;53.360;9.738;2023-06-22T08:00:48;30.70;55.30
7606;DHT22;3844;53.360;9.738;2023-06-22T08:02:49;30.40;55.20
7606;DHT22;3844;53.360;9.738;2023-06-22T08:04:50;30.60;55.70
7606;DHT22;3844;53.360;9.738;2023-06-22T08:06:51;30.80;55.20
7606;DHT22;3844;53.360;9.738;2023-06-22T08:10:55;31.00;53.30
7606;DHT22;3844;53.360;9.738;2023-06-22T08:12:55;30.90;54.20
7606;DHT22;3844;53.360;9.738;2023-06-22T08:14:56;31.50;54.50
7606;DHT22;3844;53.360;9.738;2023-06-22T08:16:57;32.00;51.30
7606;DHT22;3844;53.360;9.738;2023-06-22T08:18:58;32.20;52.00
7606;DHT22;3844;53.360;9.738;2023-06-22T08:20:58;32.40;52.00
7606;DHT22;3844;53.360;9.738;2023-06-22T08:22:59;32.60;51.20
7606;DHT22;3844;53.360;9.738;2023-06-22T08:25:06;32.70;51.20
7606;DHT22;3844;53.360;9.738;2023-06-22T08:27:09;32.80;51.30
7606;DHT22;3844;53.360;9.738;2023-06-22T08:29:11;33.30;50.70
7606;DHT22;3844;53.360;9.738;2023-06-22T08:31:12;33.90;49.70
7606;DHT22;3844;53.360;9.738;2023-06-22T08:33:14;34.10;48.70
7606;DHT22;3844;53.360;9.738;2023-06-22T08:35:15;34.20;49.40
7606;DHT22;3844;53.360;9.738;2023-06-22T08:39:17;34.80;48.40
7606;DHT22;3844;53.360;9.738;2023-06-22T08:41:18;35.10;48.30
7606;DHT22;3844;53.360;9.738;2023-06-22T08:43:19;35.40;47.80
7606;DHT22;3844;53.360;9.738;2023-06-22T08:45:19;35.60;45.90
7606;DHT22;3844;53.360;9.738;2023-06-22T08:51:23;35.70;45.90
7606;DHT22;3844;53.360;9.738;2023-06-22T08:53:24;35.50;45.60
7606;DHT22;3844;53.360;9.738;2023-06-22T08:55:24;35.00;46.90
7606;DHT22;3844;53.360;9.738;2023-06-22T08:57:25;34.60;46.10
7606;DHT22;3844;53.360;9.738;2023-06-22T08:59:26;34.20;47.60
7606;DHT22;3844;53.360;9.738;2023-06-22T09:01:27;33.90;47.70
7606;DHT22;3844;53.360;9.738;2023-06-22T09:03:28;33.90;48.40
7606;DHT22;3844;53.360;9.738;2023-06-22T09:05:29;34.20;48.60
7606;DHT22;3844;53.360;9.738;2023-06-22T09:09:30;35.20;46.10
7606;DHT22;3844;53.360;9.738;2023-06-22T09:11:31;35.30;46.30
7606;DHT22;3844;53.360;9.738;2023-06-22T09:13:33;35.80;45.60
7606;DHT22;3844;53.360;9.738;2023-06-22T09:15:33;36.20;45.10
7606;DHT22;3844;53.360;9.738;2023-06-22T09:17:35;36.30;44.20
7606;DHT22;3844;53.360;9.738;2023-06-22T09:19:36;36.30;43.80
7606;DHT22;3844;53.360;9.738;2023-06-22T09:21:37;36.20;44.20
7606;DHT22;3844;53.360;9.738;2023-06-22T09:25:39;36.00;45.40
7606;DHT22;3844;53.360;9.738;2023-06-22T09:27:41;36.10;45.40
7606;DHT22;3844;53.360;9.738;2023-06-22T09:29:41;36.20;45.80
7606;DHT22;3844;53.360;9.738;2023-06-22T09:31:42;36.30;44.70
7606;DHT22;3844;53.360;9.738;2023-06-22T09:33:43;36.40;45.50
7606;DHT22;3844;53.360;9.738;2023-06-22T09:35:44;36.50;45.70
7606;DHT22;3844;53.360;9.738;2023-06-22T09:37:45;36.90;45.20
7606;DHT22;3844;53.360;9.738;2023-06-22T09:41:47;37.50;43.60
7606;DHT22;3844;53.360;9.738;2023-06-22T09:43:48;37.40;44.60
7606;DHT22;3844;53.360;9.738;2023-06-22T09:47:50;37.50;43.20
7606;DHT22;3844;53.360;9.738;2023-06-22T09:49:50;37.50;43.10
7606;DHT22;3844;53.360;9.738;2023-06-22T09:51:51;37.70;43.60
7606;DHT22;3844;53.360;9.738;2023-06-22T09:53:53;37.90;43.30
7606;DHT22;3844;53.360;9.738;2023-06-22T09:55:56;38.00;43.30
7606;DHT22;3844;53.360;9.738;2023-06-22T09:57:57;38.00;43.60
7606;DHT22;3844;53.360;9.738;2023-06-22T09:59:58;37.90;43.60
7606;DHT22;3844;53.360;9.738;2023-06-22T10:01:59;37.80;43.00
7606;DHT22;3844;53.360;9.738;2023-06-22T10:03:59;37.80;43.20
7606;DHT22;3844;53.360;9.738;2023-06-22T10:06:00;37.60;43.80
7606;DHT22;3844;53.360;9.738;2023-06-22T10:08:01;38.00;43.30
7606;DHT22;3844;53.360;9.738;2023-06-22T10:10:02;38.30;43.30
7606;DHT22;3844;53.360;9.738;2023-06-22T10:12:02;38.70;43.20
7606;DHT22;3844;53.360;9.738;2023-06-22T10:14:03;38.40;42.90
7606;DHT22;3844;53.360;9.738;2023-06-22T10:16:04;38.50;43.10
7606;DHT22;3844;53.360;9.738;2023-06-22T10:18:05;38.60;42.60
7606;DHT22;3844;53.360;9.738;2023-06-22T10:20:07;38.40;42.40
7606;DHT22;3844;53.360;9.738;2023-06-22T10:22:14;38.00;43.30
7606;DHT22;3844;53.360;9.738;2023-06-22T10:24:14;37.70;44.10
7606;DHT22;3844;53.360;9.738;2023-06-22T10:26:15;38.00;44.60
7606;DHT22;3844;53.360;9.738;2023-06-22T10:28:16;38.20;43.90
7606;DHT22;3844;53.360;9.738;2023-06-22T10:30:17;38.20;43.50
7606;DHT22;3844;53.360;9.738;2023-06-22T10:32:19;38.10;43.90
7606;DHT22;3844;53.360;9.738;2023-06-22T10:34:19;37.70;43.60
7606;DHT22;3844;53.360;9.738;2023-06-22T10:36:21;37.60;44.10
7606;DHT22;3844;53.360;9.738;2023-06-22T10:38:21;37.90;44.90
7606;DHT22;3844;53.360;9.738;2023-06-22T10:40:22;38.40;44.10
7606;DHT22;3844;53.360;9.738;2023-06-22T10:42:23;38.60;42.80
7606;DHT22;3844;53.360;9.738;2023-06-22T10:44:24;38.40;42.50
7606;DHT22;3844;53.360;9.738;2023-06-22T10:46:25;37.70;43.00
7606;DHT22;3844;53.360;9.738;2023-06-22T10:48:26;37.30;44.20
7606;DHT22;3844;53.360;9.738;2023-06-22T10:50:27;37.10;44.40
7606;DHT22;3844;53.360;9.738;2023-06-22T10:52:28;37.10;45.40
7606;DHT22;3844;53.360;9.738;2023-06-22T10:54:29;37.20;45.00
7606;DHT22;3844;53.360;9.738;2023-06-22T10:56:29;37.10;44.70
7606;DHT22;3844;53.360;9.738;2023-06-22T10:58:30;36.70;44.20
7606;DHT22;3844;53.360;9.738;2023-06-22T11:00:31;36.40;46.10
7606;DHT22;3844;53.360;9.738;2023-06-22T11:02:32;36.60;45.90
7606;DHT22;3844;53.360;9.738;2023-06-22T11:04:32;37.10;46.10
7606;DHT22;3844;53.360;9.738;2023-06-22T11:06:33;37.30;43.80
7606;DHT22;3844;53.360;9.738;2023-06-22T11:10:35;36.30;45.50
7606;DHT22;3844;53.360;9.738;2023-06-22T11:12:36;36.50;45.70
7606;DHT22;3844;53.360;9.738;2023-06-22T11:14:36;36.90;45.30
7606;DHT22;3844;53.360;9.738;2023-06-22T11:16:37;36.90;45.30
7606;DHT22;3844;53.360;9.738;2023-06-22T11:18:38;37.10;43.90
7606;DHT22;3844;53.360;9.738;2023-06-22T11:20:39;36.60;44.40
7606;DHT22;3844;53.360;9.738;2023-06-22T11:22:41;35.80;46.30
7606;DHT22;3844;53.360;9.738;2023-06-22T11:26:43;35.30;46.90
7606;DHT22;3844;53.360;9.738;2023-06-22T11:30:45;34.80;48.30
7606;DHT22;3844;53.360;9.738;2023-06-22T11:32:46;34.60;49.00
7606;DHT22;3844;53.360;9.738;2023-06-22T11:36:47;34.70;49.20
7606;DHT22;3844;53.360;9.738;2023-06-22T11:38:48;35.10;48.40
7606;DHT22;3844;53.360;9.738;2023-06-22T11:40:49;35.40;48.50
7606;DHT22;3844;53.360;9.738;2023-06-22T11:42:50;36.00;47.40
7606;DHT22;3844;53.360;9.738;2023-06-22T11:44:50;36.80;45.80
7606;DHT22;3844;53.360;9.738;2023-06-22T11:46:52;37.60;45.60
7606;DHT22;3844;53.360;9.738;2023-06-22T11:48:52;38.20;44.10
7606;DHT22;3844;53.360;9.738;2023-06-22T11:50:53;38.20;43.00
7606;DHT22;3844;53.360;9.738;2023-06-22T11:52:55;37.80;44.30
7606;DHT22;3844;53.360;9.738;2023-06-22T11:54:55;37.30;45.10
7606;DHT22;3844;53.360;9.738;2023-06-22T11:56:56;36.60;45.10
7606;DHT22;3844;53.360;9.738;2023-06-22T12:00:58;36.20;46.20
7606;DHT22;3844;53.360;9.738;2023-06-22T12:02:59;36.00;46.40
7606;DHT22;3844;53.360;9.738;2023-06-22T12:05:00;35.90;47.60
7606;DHT22;3844;53.360;9.738;2023-06-22T12:07:00;35.80;47.80
7606;DHT22;3844;53.360;9.738;2023-06-22T12:09:02;35.60;48.60
7606;DHT22;3844;53.360;9.738;2023-06-22T12:13:06;34.90;48.60
7606;DHT22;3844;53.360;9.738;2023-06-22T12:15:07;34.80;49.00
7606;DHT22;3844;53.360;9.738;2023-06-22T12:17:07;34.70;48.90
7606;DHT22;3844;53.360;9.738;2023-06-22T12:19:08;34.50;49.20
7606;DHT22;3844;53.360;9.738;2023-06-22T12:21:09;34.30;49.90
7606;DHT22;3844;53.360;9.738;2023-06-22T12:23:10;34.20;49.50
7606;DHT22;3844;53.360;9.738;2023-06-22T12:25:10;34.00;50.20
7606;DHT22;3844;53.360;9.738;2023-06-22T12:27:11;33.80;50.50
7606;DHT22;3844;53.360;9.738;2023-06-22T12:29:12;33.80;50.90
7606;DHT22;3844;53.360;9.738;2023-06-22T12:31:13;33.40;51.10
7606;DHT22;3844;53.360;9.738;2023-06-22T12:33:14;33.20;51.20
7606;DHT22;3844;53.360;9.738;2023-06-22T12:35:15;33.30;51.50
7606;DHT22;3844;53.360;9.738;2023-06-22T12:37:16;33.30;51.30
7606;DHT22;3844;53.360;9.738;2023-06-22T12:41:18;33.10;51.40
7606;DHT22;3844;53.360;9.738;2023-06-22T12:43:18;33.30;51.90
7606;DHT22;3844;53.360;9.738;2023-06-22T12:45:19;33.20;51.60
7606;DHT22;3844;53.360;9.738;2023-06-22T12:47:21;33.10;51.70
7606;DHT22;3844;53.360;9.738;2023-06-22T12:49:22;33.10;52.20
7606;DHT22;3844;53.360;9.738;2023-06-22T12:51:23;33.00;52.30
7606;DHT22;3844;53.360;9.738;2023-06-22T12:53:23;32.60;52.30
7606;DHT22;3844;53.360;9.738;2023-06-22T12:55:24;32.40;53.50
7606;DHT22;3844;53.360;9.738;2023-06-22T12:57:25;32.60;53.10
7606;DHT22;3844;53.360;9.738;2023-06-22T12:59:26;32.90;52.70
7606;DHT22;3844;53.360;9.738;2023-06-22T13:01:27;33.00;52.30
7606;DHT22;3844;53.360;9.738;2023-06-22T13:03:27;32.80;52.90
7606;DHT22;3844;53.360;9.738;2023-06-22T13:05:28;32.50;52.80
7606;DHT22;3844;53.360;9.738;2023-06-22T13:07:29;32.30;54.00
7606;DHT22;3844;53.360;9.738;2023-06-22T13:09:30;32.20;53.50
7606;DHT22;3844;53.360;9.738;2023-06-22T13:11:31;32.10;54.10
7606;DHT22;3844;53.360;9.738;2023-06-22T13:13:32;32.00;54.90
7606;DHT22;3844;53.360;9.738;2023-06-22T13:17:35;31.90;55.00
7606;DHT22;3844;53.360;9.738;2023-06-22T13:21:37;31.80;55.30
7606;DHT22;3844;53.360;9.738;2023-06-22T13:23:38;31.80;54.40
7606;DHT22;3844;53.360;9.738;2023-06-22T13:25:39;31.70;55.40
7606;DHT22;3844;53.360;9.738;2023-06-22T13:27:40;31.80;55.10
7606;DHT22;3844;53.360;9.738;2023-06-22T13:29:41;31.90;55.10
7606;DHT22;3844;53.360;9.738;2023-06-22T13:31:42;31.90;54.90
7606;DHT22;3844;53.360;9.738;2023-06-22T13:33:42;31.90;54.40
7606;DHT22;3844;53.360;9.738;2023-06-22T13:35:44;31.80;55.50
7606;DHT22;3844;53.360;9.738;2023-06-22T13:37:45;31.50;55.00
7606;DHT22;3844;53.360;9.738;2023-06-22T13:39:46;31.20;56.50
7606;DHT22;3844;53.360;9.738;2023-06-22T13:41:47;30.80;56.60
7606;DHT22;3844;53.360;9.738;2023-06-22T13:43:48;30.50;56.90
7606;DHT22;3844;53.360;9.738;2023-06-22T13:45:48;30.30;57.60
7606;DHT22;3844;53.360;9.738;2023-06-22T13:47:49;30.00;57.90
7606;DHT22;3844;53.360;9.738;2023-06-22T13:51:51;29.70;58.90
7606;DHT22;3844;53.360;9.738;2023-06-22T13:53:52;29.60;60.40
7606;DHT22;3844;53.360;9.738;2023-06-22T13:55:53;29.40;61.60
7606;DHT22;3844;53.360;9.738;2023-06-22T13:57:54;29.30;61.90
7606;DHT22;3844;53.360;9.738;2023-06-22T14:01:56;28.90;63.00
7606;DHT22;3844;53.360;9.738;2023-06-22T14:03:57;28.70;63.40
7606;DHT22;3844;53.360;9.738;2023-06-22T14:05:57;28.50;64.40
7606;DHT22;3844;53.360;9.738;2023-06-22T14:07:58;28.40;66.20
7606;DHT22;3844;53.360;9.738;2023-06-22T14:10:00;28.40;66.00
7606;DHT22;3844;53.360;9.738;2023-06-22T14:12:05;28.60;66.20
7606;DHT22;3844;53.360;9.738;2023-06-22T14:14:08;28.70;66.10
7606;DHT22;3844;53.360;9.738;2023-06-22T14:16:09;28.70;65.20